Nearby METAR Reports

 

KLXT - Lees Summit Muni, Missouri, USA
Distance from station: E 5mi, 9km
Updated: Wed, 28-Sep-2016 2:53am CDT
Clear
Clear
 Wind from W
Wind: W 7 mph , 11 km/h
Temperature: 61°F , 16°C
Dew Point: 55°F , 13°C
Humidity: 83%
Barometer: 29.87 inHg , 1011.5 hPa
Clouds: Clear
Visibility: 10 miles , 16 km
2016/09/28 07:53 KLXT 280753Z AUTO 26006KT 10SM CLR 16/13 A2987 RMK AO2 SLP108 T01560128
KMKC - Kansas City/Dntn, Missouri, USA
Distance from station: NW 12mi, 19km
Updated: Wed, 28-Sep-2016 2:54am CDT
Clear
Clear
 Wind from calm
Wind: Calm
Temperature: 61°F , 16°C
Dew Point: 55°F , 13°C
Humidity: 83%
Barometer: 29.86 inHg , 1011.2 hPa
Clouds: Clear
Visibility: 10 miles , 16 km
2016/09/28 07:54 KMKC 280754Z 00000KT 10SM CLR 16/13 A2986 RMK AO2 SLP105 T01610133
 
KIXD - Olathe/Industria, Kansas, USA
Distance from station: WSW 25mi, 41km
Updated: Wed, 28-Sep-2016 2:53am CDT
Clear
Clear
 Wind from W
Wind: W 6 mph , 9 km/h
Temperature: 61°F , 16°C
Dew Point: 55°F , 13°C
Humidity: 83%
Barometer: 29.88 inHg , 1011.9 hPa
Clouds: Clear
Visibility: 10 miles , 16 km
2016/09/28 07:53 KIXD 280753Z AUTO 26005KT 10SM CLR 16/13 A2988 RMK AO2 SLP110 T01610128
KMCI - Kansas City/Intl, Missouri, USA
Distance from station: NW 26mi, 42km
Updated: Wed, 28-Sep-2016 2:53am CDT
Clear
Clear
 Wind from WNW
Wind: WNW 7 mph , 11 km/h
Temperature: 61°F , 16°C
Dew Point: 54°F , 12°C
Humidity: 77%
Barometer: 29.87 inHg , 1011.5 hPa
Clouds: Clear
Visibility: 10 miles , 16 km
2016/09/28 07:53 KMCI 280753Z 29006KT 10SM CLR 16/12 A2987 RMK AO2 SLP105 T01560117
 
KRCM - Warrensburg Skyh, Missouri, USA
Distance from station: ESE 38mi, 62km
Updated: Wed, 28-Sep-2016 2:35am CDT
Clear
Clear
 Wind from S
Wind: S 6 mph , 9 km/h
Temperature: 55°F , 13°C
Dew Point: 54°F , 12°C
Humidity: 94%
Barometer: 29.85 inHg , 1010.8 hPa
Clouds: Clear
Visibility: 10 miles , 16 km
2016/09/28 07:35 KRCM 280735Z AUTO 18005KT 10SM CLR 13/12 A2985 RMK AO2
KLWC - Lawrence, Kansas, USA
Distance from station: W 40mi, 65km
Updated: Wed, 28-Sep-2016 2:52am CDT
Clear
Clear
 Wind from WNW
Wind: WNW 6 mph , 9 km/h
Temperature: 54°F , 12°C
Dew Point: 54°F , 12°C
Humidity: 100%
Barometer: 29.88 inHg , 1011.9 hPa
Clouds: Clear
Visibility: 10 miles , 16 km
2016/09/28 07:52 KLWC 280752Z AUTO 30005KT 10SM CLR 12/12 A2988 RMK AO2 SLP112 T01220122
 
KSZL - Whiteman Afb, Missouri, USA
Distance from station: ESE 53mi, 86km
Updated: Wed, 28-Sep-2016 2:58am CDT
Clear
Clear
 Wind from WSW
Wind: WSW 5 mph , 7 km/h
Temperature: 61°F , 16°C
Dew Point: 57°F , 14°C
Humidity: 88%
Barometer: 29.84 inHg , 1010.5 hPa
Clouds: Clear
Visibility: 10 miles , 16 km
2016/09/28 07:58 KSZL 280758Z 25004KT 10SM CLR 16/14 A2984 RMK AO2A SLP101 T01570139
KSTJ - St. Joseph, Missouri, USA
Distance from station: NNW 59mi, 95km
Updated: Wed, 28-Sep-2016 2:53am CDT
Clear
Clear
 Wind from NNW
Wind: NNW 3 mph , 6 km/h
Temperature: 54°F , 12°C
Dew Point: 52°F , 11°C
Humidity: 94%
Barometer: 29.87 inHg , 1011.5 hPa
Clouds: Clear
Visibility: 10 miles , 16 km
2016/09/28 07:53 KSTJ 280753Z AUTO 34003KT 10SM CLR 12/11 A2987 RMK AO2 SLP111 T01170106
 
KGLY - Clinton, Missouri, USA
Distance from station: SE 61mi, 98km
Updated: Wed, 28-Sep-2016 3:15am CDT
Clear
Clear
 Wind from SW
Wind: SW 7 mph , 11 km/h
Temperature: 59°F , 15°C
Dew Point: 54°F , 12°C
Humidity: 82%
Barometer: 29.86 inHg , 1011.2 hPa
Clouds: Clear
Visibility: 10 miles , 16 km
2016/09/28 08:15 KGLY 280815Z AUTO 23006KT 10SM CLR 15/12 A2986 RMK AO2
KFOE - Topeka/Forbes, Kansas, USA
Distance from station: W 64mi, 103km
Updated: Wed, 28-Sep-2016 2:53am CDT
Clear
Clear
 Wind from calm
Wind: Calm
Temperature: 61°F , 16°C
Dew Point: 55°F , 13°C
Humidity: 83%
Barometer: 29.89 inHg , 1012.2 hPa
Clouds: Clear
Visibility: 10 miles , 16 km
2016/09/28 07:53 KFOE 280753Z AUTO 00000KT 10SM CLR 16/13 A2989 RMK AO2 SLP114 T01610128
 
KDMO - Sedalia, Missouri, USA
Distance from station: ESE 72mi, 116km
Updated: Wed, 28-Sep-2016 2:53am CDT
Few Clouds
Few Clouds
 Wind from WSW
Wind: WSW 7 mph , 11 km/h
Temperature: 63°F , 17°C
Dew Point: 54°F , 12°C
Humidity: 73%
Barometer: 29.86 inHg , 1011.2 hPa
Clouds: Few Clouds
Visibility: 10 miles , 16 km
Cloud details: Few Clouds 9500 ft
2016/09/28 07:53 KDMO 280753Z AUTO 25006KT 10SM FEW095 17/12 A2986 RMK AO2 SLP103 T01720122
KCDJ - Chillicothe, Missouri, USA
Distance from station: NE 74mi, 120km
Updated: Wed, 28-Sep-2016 2:52am CDT

 Wind from N
Wind: N 6 mph , 9 km/h
Temperature: 55°F , 13°C
Dew Point: 52°F , 11°C
Humidity: 88%
Barometer: 29.86 inHg , 1011.2 hPa
2016/09/28 07:52 KCDJ 280752Z AUTO 01005KT 13/11 A2986 RMK AO1 SLP106 T01280106
 
KFNB - Falls City/Brenn, Nebraska, USA
Distance from station: NW 96mi, 154km
Updated: Wed, 28-Sep-2016 2:53am CDT
Clear
Clear
 Wind from WNW
Wind: WNW 7 mph , 11 km/h
Temperature: 54°F , 12°C
Dew Point: 52°F , 11°C
Humidity: 94%
Barometer: 29.89 inHg , 1012.2 hPa
Clouds: Clear
Visibility: 10 miles , 16 km
2016/09/28 07:53 KFNB 280753Z AUTO 30006KT 10SM CLR 12/11 A2989 RMK AO2 SLP117 T01170106
KVER - Boonville, Missouri, USA
Distance from station: E 96mi, 154km
Updated: Wed, 28-Sep-2016 3:15am CDT
Clear
Clear
 Wind from SW
Wind: SW 3 mph , 6 km/h
Temperature: 59°F , 15°C
Dew Point: 59°F , 15°C
Humidity: 100%
Barometer: 29.83 inHg , 1010.2 hPa
Clouds: Clear
Visibility: 10 miles , 16 km
2016/09/28 08:15 KVER 280815Z AUTO 23003KT 10SM CLR 15/15 A2983 RMK AO2 T01450145